createdAt,value
2023-02-07T00:01:36.368Z,19.05
2023-02-07T00:04:06.768Z,18.50
2023-02-07T00:06:37.437Z,18.20
2023-02-07T00:09:08.397Z,19.67
2023-02-07T00:11:40.343Z,16.10
2023-02-07T00:14:10.632Z,18.35
2023-02-07T00:16:39.835Z,17.95
2023-02-07T00:19:10.095Z,17.13
2023-02-07T00:21:38.549Z,17.08
2023-02-07T00:24:07.732Z,16.00
2023-02-07T00:26:36.233Z,16.90
2023-02-07T00:29:05.596Z,18.92
2023-02-07T00:31:36.644Z,17.35
2023-02-07T00:34:07.093Z,17.38
2023-02-07T00:36:37.729Z,11.53
2023-02-07T00:39:09.100Z,16.20
2023-02-07T00:41:37.580Z,18.42
2023-02-07T00:44:06.743Z,17.95
2023-02-07T00:46:36.609Z,18.33
2023-02-07T00:49:06.185Z,18.58
2023-02-07T00:51:36.287Z,18.38
2023-02-07T00:54:04.947Z,18.10
2023-02-07T00:56:34.829Z,18.15
2023-02-07T00:59:03.625Z,16.88
2023-02-07T01:01:32.415Z,18.80
2023-02-07T01:04:01.126Z,18.42
2023-02-07T01:06:33.697Z,17.27
2023-02-07T01:09:05.560Z,17.63
2023-02-07T01:11:34.102Z,18.63
2023-02-07T01:14:03.294Z,21.90
2023-02-07T01:16:33.709Z,19.80
2023-02-07T01:19:04.248Z,18.37
2023-02-07T01:21:33.120Z,17.48
2023-02-07T01:24:01.472Z,16.17
2023-02-07T01:26:31.595Z,18.58
2023-02-07T01:28:59.848Z,17.38
2023-02-07T01:31:28.387Z,18.38
2023-02-07T01:33:57.505Z,20.73
2023-02-07T01:36:28.041Z,21.63
2023-02-07T01:38:57.424Z,23.10
2023-02-07T01:41:28.469Z,19.95
2023-02-07T01:44:04.046Z,22.88
2023-02-07T01:46:34.614Z,18.98
2023-02-07T01:49:07.291Z,20.42
2023-02-07T01:51:37.567Z,21.27
2023-02-07T01:54:11.097Z,18.35
2023-02-07T01:56:44.415Z,16.88
2023-02-07T01:59:16.602Z,16.02
2023-02-07T02:01:46.605Z,18.13
2023-02-07T02:04:15.118Z,18.20
2023-02-07T02:06:44.635Z,19.35
2023-02-07T02:09:16.096Z,16.33
2023-02-07T02:12:07.758Z,17.42
2023-02-07T02:17:25.548Z,14.67
2023-02-07T02:20:19.258Z,15.45
2023-02-07T02:23:14.121Z,14.27
2023-02-07T02:26:17.111Z,18.08
2023-02-07T02:29:14.481Z,17.13
2023-02-07T02:32:07.742Z,17.02
2023-02-07T02:34:46.174Z,18.63
2023-02-07T02:37:24.559Z,16.35
2023-02-07T02:40:01.851Z,19.13
2023-02-07T02:42:36.655Z,19.52
2023-02-07T02:45:11.884Z,18.55
2023-02-07T02:47:42.895Z,18.17
2023-02-07T02:50:19.854Z,20.08
2023-02-07T02:52:51.347Z,18.30
2023-02-07T02:55:41.687Z,19.23
2023-02-07T02:58:20.263Z,18.90
2023-02-07T03:01:01.170Z,18.63
2023-02-07T03:03:50.910Z,18.27
2023-02-07T03:06:34.949Z,18.15
2023-02-07T03:09:16.869Z,17.83
2023-02-07T03:11:56.422Z,19.20
2023-02-07T03:14:33.662Z,21.02
2023-02-07T03:17:15.174Z,18.38
2023-02-07T03:19:49.036Z,20.13
2023-02-07T03:22:22.253Z,20.00
2023-02-07T03:24:55.078Z,21.38
2023-02-07T03:27:26.100Z,19.67
2023-02-07T03:29:58.005Z,18.23
2023-02-07T03:32:30.396Z,19.30
2023-02-07T03:35:02.158Z,20.02
2023-02-07T03:37:36.633Z,18.45
2023-02-07T03:40:06.555Z,18.42
2023-02-07T03:42:38.536Z,19.10
2023-02-07T03:45:10.955Z,21.15
2023-02-07T03:47:39.279Z,19.80
2023-02-07T03:50:08.018Z,19.95
2023-02-07T03:52:38.170Z,19.77
2023-02-07T03:55:08.693Z,17.88
2023-02-07T03:57:37.640Z,18.63
2023-02-07T04:00:07.259Z,19.52
2023-02-07T04:02:40.996Z,19.55
2023-02-07T04:05:10.141Z,18.52
2023-02-07T04:07:40.650Z,19.17
2023-02-07T04:10:09.680Z,18.50
2023-02-07T04:12:38.299Z,19.42
2023-02-07T04:15:08.646Z,19.40
2023-02-07T04:17:38.849Z,20.63
2023-02-07T04:20:08.401Z,18.83
2023-02-07T04:22:36.727Z,19.67
2023-02-07T04:25:08.277Z,18.60
2023-02-07T04:27:36.577Z,19.13
2023-02-07T04:30:05.389Z,18.30
2023-02-07T04:32:33.688Z,19.33
2023-02-07T04:35:02.085Z,20.25
2023-02-07T04:37:30.590Z,19.00
2023-02-07T04:39:59.416Z,18.92
2023-02-07T04:42:29.223Z,17.85
2023-02-07T04:44:57.650Z,19.05
2023-02-07T04:47:25.858Z,18.00
2023-02-07T04:49:54.310Z,20.13
2023-02-07T04:52:22.686Z,18.55
2023-02-07T04:54:51.804Z,17.63
2023-02-07T04:57:20.132Z,18.02
2023-02-07T04:59:49.963Z,16.27
2023-02-07T05:02:18.628Z,18.83
2023-02-07T05:04:46.856Z,16.88
2023-02-07T05:07:15.238Z,18.83
2023-02-07T05:09:43.694Z,17.80
2023-02-07T05:12:13.083Z,18.23
2023-02-07T05:14:41.337Z,17.45
2023-02-07T05:17:11.828Z,17.17
2023-02-07T05:19:40.112Z,17.88
2023-02-07T05:22:08.284Z,16.30
2023-02-07T05:24:36.520Z,15.90
2023-02-07T05:27:04.821Z,16.98
2023-02-07T05:29:34.530Z,18.40
2023-02-07T05:32:20.152Z,17.30
2023-02-07T05:34:49.945Z,18.38
2023-02-07T05:37:18.182Z,17.30
2023-02-07T05:39:46.609Z,18.20
2023-02-07T05:42:14.991Z,18.00
2023-02-07T05:44:44.452Z,17.25
2023-02-07T05:47:13.166Z,16.63
2023-02-07T05:49:43.185Z,16.10
2023-02-07T05:52:14.032Z,16.20
2023-02-07T05:54:43.032Z,17.60
2023-02-07T05:57:11.461Z,16.73
2023-02-07T05:59:40.435Z,16.77
2023-02-07T06:02:08.719Z,18.98
2023-02-07T06:04:37.621Z,17.83
2023-02-07T06:07:06.393Z,18.02
2023-02-07T06:09:36.375Z,16.80
2023-02-07T06:12:05.403Z,16.15
2023-02-07T06:14:34.698Z,17.48
2023-02-07T06:17:02.904Z,17.05
2023-02-07T06:19:31.417Z,17.30
2023-02-07T06:21:59.870Z,18.60
2023-02-07T06:24:28.275Z,16.85
2023-02-07T06:26:58.122Z,19.40
2023-02-07T06:29:26.696Z,18.73
2023-02-07T06:31:55.032Z,18.75
2023-02-07T06:34:23.672Z,18.65
2023-02-07T06:36:52.179Z,17.67
2023-02-07T06:39:20.699Z,18.08
2023-02-07T06:41:49.652Z,17.98
2023-02-07T06:44:19.615Z,17.02
2023-02-07T06:46:48.175Z,16.83
2023-02-07T06:49:16.896Z,17.83
2023-02-07T06:51:45.239Z,17.25
2023-02-07T06:54:13.801Z,16.25
2023-02-07T06:56:42.218Z,17.85
2023-02-07T06:59:10.684Z,17.50
2023-02-07T07:01:40.752Z,16.80
2023-02-07T07:04:09.127Z,17.42
2023-02-07T07:06:37.430Z,16.58
2023-02-07T07:09:06.606Z,16.38
2023-02-07T07:11:34.948Z,17.67
2023-02-07T07:14:04.101Z,16.25
2023-02-07T07:16:32.959Z,16.85
2023-02-07T07:19:02.893Z,16.38
2023-02-07T07:21:31.627Z,15.10
2023-02-07T07:24:00.282Z,14.93
2023-02-07T07:26:39.539Z,15.30
2023-02-07T07:29:16.916Z,15.90
2023-02-07T07:31:45.901Z,16.42
2023-02-07T07:34:15.750Z,15.25
2023-02-07T07:36:44.138Z,15.25
2023-02-07T07:39:13.423Z,15.82
2023-02-07T07:41:42.077Z,14.85
2023-02-07T07:44:19.088Z,15.52
2023-02-07T07:46:47.458Z,15.00
2023-02-07T07:49:17.669Z,14.07
2023-02-07T07:51:46.941Z,14.40
2023-02-07T07:54:15.220Z,15.50
2023-02-07T07:56:43.528Z,13.90
2023-02-07T07:59:15.973Z,14.45
2023-02-07T08:01:53.332Z,12.80
2023-02-07T08:04:23.054Z,14.25
2023-02-07T08:06:51.694Z,13.48
2023-02-07T08:09:20.340Z,11.70
2023-02-07T08:11:48.665Z,13.73
2023-02-07T08:14:17.048Z,13.48
2023-02-07T08:16:45.416Z,12.95
2023-02-07T08:19:13.753Z,12.90
2023-02-07T08:21:44.820Z,13.05
2023-02-07T08:24:13.584Z,13.18
2023-02-07T08:26:42.083Z,12.40
2023-02-07T08:29:10.764Z,13.75
2023-02-07T08:31:39.428Z,11.48
2023-02-07T08:34:07.756Z,12.23
2023-02-07T08:36:37.173Z,12.25
2023-02-07T08:39:07.219Z,13.07
2023-02-07T08:41:35.869Z,12.38
2023-02-07T08:44:04.155Z,11.40
2023-02-07T08:46:32.649Z,11.30
2023-02-07T08:49:01.135Z,12.05
2023-02-07T08:51:31.596Z,10.63
2023-02-07T08:53:59.946Z,12.23
2023-02-07T08:56:29.779Z,10.73
2023-02-07T08:58:58.163Z,10.48
2023-02-07T09:01:27.219Z,11.27
2023-02-07T09:03:56.771Z,10.55
2023-02-07T09:06:25.948Z,11.02
2023-02-07T09:08:56.123Z,9.52
2023-02-07T09:11:24.579Z,9.88
2023-02-07T09:13:54.276Z,9.23
2023-02-07T09:16:23.496Z,9.23
2023-02-07T09:18:53.108Z,9.35
2023-02-07T09:21:21.562Z,8.18
2023-02-07T09:23:50.067Z,9.55
2023-02-07T09:26:22.156Z,9.15
2023-02-07T09:28:50.889Z,9.85
2023-02-07T09:31:21.893Z,9.95
2023-02-07T09:33:50.333Z,9.35
2023-02-07T09:36:21.029Z,9.38
2023-02-07T09:38:49.310Z,9.40
2023-02-07T09:41:23.733Z,8.82
2023-02-07T09:44:03.077Z,8.80
2023-02-07T09:46:38.009Z,9.30
2023-02-07T09:49:13.969Z,8.80
2023-02-07T09:51:45.400Z,9.63
2023-02-07T09:56:48.999Z,8.40
2023-02-07T09:59:26.346Z,9.25
2023-02-07T10:02:01.306Z,8.38
2023-02-07T10:04:36.434Z,8.07
2023-02-07T10:07:08.366Z,8.77
2023-02-07T10:09:40.968Z,8.00
2023-02-07T10:12:21.934Z,8.48
2023-02-07T10:15:22.424Z,8.52
2023-02-07T10:18:08.489Z,7.55
2023-02-07T10:20:40.755Z,6.93
2023-02-07T10:23:29.312Z,8.65
2023-02-07T10:26:06.317Z,7.57
2023-02-07T10:28:52.399Z,7.35
2023-02-07T10:31:24.369Z,8.18
2023-02-07T10:33:58.773Z,8.43
2023-02-07T10:36:29.899Z,6.97
2023-02-07T10:39:09.356Z,7.30
2023-02-07T10:41:39.665Z,7.53
2023-02-07T10:44:11.490Z,7.68
2023-02-07T10:46:42.007Z,7.43
2023-02-07T10:49:24.787Z,7.33
2023-02-07T10:51:58.069Z,8.00
2023-02-07T10:54:27.423Z,7.18
2023-02-07T10:57:01.981Z,7.65
2023-02-07T10:59:40.774Z,6.57
2023-02-07T11:02:39.770Z,6.53
2023-02-07T11:05:30.315Z,6.68
2023-02-07T11:08:00.160Z,7.00
2023-02-07T11:10:32.348Z,7.07
2023-02-07T11:13:02.574Z,6.57
2023-02-07T11:15:39.049Z,6.60
2023-02-07T11:18:07.898Z,6.68
2023-02-07T11:20:41.183Z,6.90
2023-02-07T11:23:16.543Z,7.35
2023-02-07T11:25:47.263Z,6.63
2023-02-07T11:28:21.581Z,6.73
2023-02-07T11:30:56.568Z,6.68
2023-02-07T11:33:28.785Z,6.53
2023-02-07T11:36:22.330Z,6.80
2023-02-07T11:38:53.865Z,7.65
2023-02-07T11:41:25.671Z,6.30
2023-02-07T11:46:35.651Z,6.90
2023-02-07T11:49:06.232Z,6.82
2023-02-07T11:51:36.833Z,6.13
2023-02-07T11:54:08.072Z,6.03
2023-02-07T11:56:40.598Z,6.80
2023-02-07T11:59:15.479Z,5.90
2023-02-07T12:01:46.141Z,7.28
2023-02-07T12:04:18.581Z,6.97
2023-02-07T12:06:56.707Z,6.45
2023-02-07T12:09:34.839Z,6.07
2023-02-07T12:12:08.254Z,6.80
2023-02-07T12:14:43.389Z,6.88
2023-02-07T12:17:17.384Z,7.28
2023-02-07T12:19:53.933Z,6.45
2023-02-07T12:22:30.516Z,6.95
2023-02-07T12:25:05.241Z,6.68
2023-02-07T12:27:38.229Z,6.60
2023-02-07T12:30:17.036Z,6.47
2023-02-07T12:32:54.762Z,5.82
2023-02-07T12:35:27.768Z,6.80
2023-02-07T12:38:06.435Z,6.30
2023-02-07T12:40:40.531Z,6.47
2023-02-07T12:43:15.874Z,6.45
2023-02-07T12:46:11.823Z,6.25
2023-02-07T12:48:57.038Z,7.50
2023-02-07T12:51:34.631Z,6.53
2023-02-07T12:54:21.809Z,6.78
2023-02-07T12:56:57.749Z,6.75
2023-02-07T12:59:40.635Z,7.28
2023-02-07T13:02:27.892Z,6.75
2023-02-07T13:05:15.166Z,7.05
2023-02-07T13:07:55.738Z,6.30
2023-02-07T13:10:38.794Z,6.95
2023-02-07T13:13:18.624Z,7.85
2023-02-07T13:15:53.920Z,7.30
2023-02-07T13:18:31.569Z,7.22
2023-02-07T13:21:11.680Z,7.38
2023-02-07T13:23:45.067Z,7.18
2023-02-07T13:26:20.108Z,7.32
2023-02-07T13:28:53.099Z,7.57
2023-02-07T13:31:25.719Z,6.93
2023-02-07T13:33:54.901Z,6.85
2023-02-07T13:36:31.099Z,8.10
2023-02-07T13:39:09.224Z,7.43
2023-02-07T13:41:49.145Z,7.68
2023-02-07T13:44:26.140Z,7.28
2023-02-07T13:47:45.128Z,7.35
2023-02-07T13:50:25.444Z,7.65
2023-02-07T13:53:01.034Z,7.20
2023-02-07T13:55:33.602Z,8.32
2023-02-07T13:58:20.636Z,7.38
2023-02-07T14:01:02.166Z,7.43
2023-02-07T14:03:34.088Z,7.38
2023-02-07T14:06:25.988Z,6.93
2023-02-07T14:09:02.856Z,7.60
2023-02-07T14:11:39.566Z,7.43
2023-02-07T14:14:16.898Z,7.78
2023-02-07T14:16:49.870Z,8.05
2023-02-07T14:19:54.920Z,8.02
2023-02-07T14:22:27.264Z,7.07
2023-02-07T14:25:25.277Z,7.22
2023-02-07T14:28:21.066Z,7.88
2023-02-07T14:31:03.595Z,8.02
2023-02-07T14:33:36.860Z,8.32
2023-02-07T14:36:18.677Z,7.38
2023-02-07T14:39:03.167Z,8.10
2023-02-07T14:41:34.970Z,7.80
2023-02-07T14:44:10.014Z,7.53
2023-02-07T14:46:43.044Z,7.53
2023-02-07T14:49:19.710Z,8.32
2023-02-07T14:51:50.957Z,7.50
2023-02-07T14:54:27.512Z,9.02
2023-02-07T14:57:05.087Z,8.25
2023-02-07T14:59:37.778Z,7.85
2023-02-07T15:02:31.858Z,8.43
2023-02-07T15:05:11.655Z,8.35
2023-02-07T15:07:40.679Z,8.38
2023-02-07T15:10:16.342Z,9.48
2023-02-07T15:12:45.450Z,8.85
2023-02-07T15:15:21.979Z,10.40
2023-02-07T15:17:53.574Z,9.27
2023-02-07T15:20:26.804Z,8.95
2023-02-07T15:22:56.761Z,9.45
2023-02-07T15:25:26.976Z,9.25
2023-02-07T15:28:04.484Z,9.40
2023-02-07T15:30:34.880Z,10.65
2023-02-07T15:33:12.623Z,9.10
2023-02-07T15:35:41.905Z,9.30
2023-02-07T15:38:22.949Z,9.32
2023-02-07T15:40:52.204Z,9.75
2023-02-07T15:43:28.916Z,9.10
2023-02-07T15:46:03.759Z,9.80
2023-02-07T15:48:34.967Z,9.75
2023-02-07T15:51:06.622Z,9.50
2023-02-07T15:56:07.116Z,8.93
2023-02-07T15:58:38.292Z,10.35
2023-02-07T16:01:15.369Z,10.82
2023-02-07T16:03:47.700Z,10.75
2023-02-07T16:06:21.063Z,10.40
2023-02-07T16:08:51.356Z,9.98
2023-02-07T16:11:41.424Z,10.45
2023-02-07T16:14:23.198Z,10.77
2023-02-07T16:16:53.267Z,10.18
2023-02-07T16:19:27.508Z,9.70
2023-02-07T16:22:03.375Z,10.60
2023-02-07T16:24:36.247Z,10.45
2023-02-07T16:27:05.987Z,11.32
2023-02-07T16:29:36.798Z,12.25
2023-02-07T16:32:05.653Z,11.70
2023-02-07T16:34:35.367Z,11.40
2023-02-07T16:37:04.017Z,10.63
2023-02-07T16:39:32.705Z,11.55
2023-02-07T16:42:04.666Z,11.80
2023-02-07T16:44:35.334Z,10.93
2023-02-07T16:47:04.309Z,11.32
2023-02-07T16:49:33.715Z,11.88
2023-02-07T16:52:03.528Z,11.57
2023-02-07T16:54:32.780Z,13.25
2023-02-07T16:57:04.059Z,11.80
2023-02-07T16:59:32.815Z,11.40
2023-02-07T17:02:01.317Z,11.73
2023-02-07T17:04:30.015Z,12.20
2023-02-07T17:06:59.559Z,10.82
2023-02-07T17:09:29.545Z,10.63
2023-02-07T17:11:57.877Z,11.38
2023-02-07T17:14:27.622Z,10.95
2023-02-07T17:16:56.621Z,10.65
2023-02-07T17:19:28.027Z,9.63
2023-02-07T17:21:57.419Z,9.98
2023-02-07T17:24:26.328Z,10.95
2023-02-07T17:26:59.923Z,9.75
2023-02-07T17:29:30.136Z,10.75
2023-02-07T17:31:58.772Z,10.40
2023-02-07T17:34:27.246Z,9.80
2023-02-07T17:36:55.851Z,9.75
2023-02-07T17:39:24.281Z,10.38
2023-02-07T17:41:52.604Z,10.30
2023-02-07T17:44:24.732Z,10.48
2023-02-07T17:46:53.182Z,10.20
2023-02-07T17:49:21.713Z,9.40
2023-02-07T17:51:50.229Z,10.40
2023-02-07T17:54:18.582Z,10.63
2023-02-07T17:56:47.507Z,10.57
2023-02-07T17:59:24.304Z,9.82
2023-02-07T18:01:53.495Z,10.77
2023-02-07T18:04:22.225Z,9.77
2023-02-07T18:06:50.819Z,10.32
2023-02-07T18:09:20.880Z,10.13
2023-02-07T18:11:49.428Z,10.50
2023-02-07T18:14:18.097Z,10.95
2023-02-07T18:16:48.038Z,10.77
2023-02-07T18:19:18.574Z,12.05
2023-02-07T18:21:47.014Z,11.05
2023-02-07T18:24:15.599Z,11.32
2023-02-07T18:26:46.561Z,10.50
2023-02-07T18:29:14.994Z,10.52
2023-02-07T18:31:43.956Z,10.32
2023-02-07T18:34:13.721Z,10.85
2023-02-07T18:36:42.241Z,11.27
2023-02-07T18:39:12.449Z,11.90
2023-02-07T18:41:40.942Z,10.57
2023-02-07T18:44:09.461Z,11.25
2023-02-07T18:46:37.964Z,10.77
2023-02-07T18:49:06.332Z,11.27
2023-02-07T18:51:36.315Z,10.88
2023-02-07T18:54:04.711Z,11.38
2023-02-07T18:56:35.836Z,11.30
2023-02-07T18:59:05.167Z,11.18
2023-02-07T19:01:35.385Z,12.43
2023-02-07T19:04:04.487Z,11.75
2023-02-07T19:06:35.811Z,11.50
2023-02-07T19:09:04.277Z,11.45
2023-02-07T19:11:32.868Z,12.00
2023-02-07T19:14:01.148Z,12.85
2023-02-07T19:16:30.154Z,11.63
2023-02-07T19:19:02.017Z,11.13
2023-02-07T19:21:30.773Z,10.30
2023-02-07T19:24:00.631Z,11.20
2023-02-07T19:26:28.933Z,11.60
2023-02-07T19:28:59.041Z,12.40
2023-02-07T19:31:29.322Z,12.77
2023-02-07T19:33:59.000Z,12.52
2023-02-07T19:36:28.576Z,12.68
2023-02-07T19:38:57.001Z,11.85
2023-02-07T19:41:28.492Z,13.02
2023-02-07T19:43:59.412Z,12.82
2023-02-07T19:46:28.551Z,13.18
2023-02-07T19:48:59.653Z,10.95
2023-02-07T19:51:32.039Z,12.50
2023-02-07T19:54:00.663Z,12.60
2023-02-07T19:56:33.453Z,12.77
2023-02-07T19:59:03.996Z,12.68
2023-02-07T20:01:34.353Z,12.60
2023-02-07T20:04:02.875Z,12.23
2023-02-07T20:06:33.420Z,13.68
2023-02-07T20:09:03.594Z,12.05
2023-02-07T20:11:35.285Z,12.70
2023-02-07T20:14:04.228Z,12.18
2023-02-07T20:16:35.628Z,12.43
2023-02-07T20:19:06.913Z,12.13
2023-02-07T20:21:36.814Z,9.63
2023-02-07T20:24:06.608Z,11.48
2023-02-07T20:26:40.207Z,11.57
2023-02-07T20:29:12.094Z,12.32
2023-02-07T20:34:09.701Z,12.27
2023-02-07T20:36:41.460Z,12.57
2023-02-07T20:41:43.338Z,12.27
2023-02-07T20:44:14.462Z,12.63
2023-02-07T20:46:46.589Z,13.75
2023-02-07T20:49:17.535Z,12.30
2023-02-07T20:51:48.869Z,13.07
2023-02-07T20:54:18.051Z,12.32
2023-02-07T20:56:48.274Z,12.50
2023-02-07T20:59:19.081Z,12.45
2023-02-07T21:01:48.228Z,12.60
2023-02-07T21:04:17.607Z,13.75
2023-02-07T21:06:46.761Z,13.20
2023-02-07T21:09:16.870Z,13.32
2023-02-07T21:11:48.373Z,13.30
2023-02-07T21:14:18.682Z,11.85
2023-02-07T21:16:47.576Z,12.02
2023-02-07T21:19:16.808Z,13.85
2023-02-07T21:21:46.999Z,12.88
2023-02-07T21:24:16.334Z,13.00
2023-02-07T21:26:44.949Z,13.32
2023-02-07T21:29:15.015Z,12.98
2023-02-07T21:31:43.525Z,12.35
2023-02-07T21:34:13.174Z,13.18
2023-02-07T21:36:41.589Z,12.35
2023-02-07T21:39:12.338Z,12.25
2023-02-07T21:41:42.940Z,12.47
2023-02-07T21:44:13.123Z,12.90
2023-02-07T21:46:46.607Z,12.00
2023-02-07T21:49:16.710Z,13.05
2023-02-07T21:51:48.270Z,11.90
2023-02-07T21:54:17.413Z,13.65
2023-02-07T21:56:46.226Z,13.30
2023-02-07T21:59:16.454Z,12.77
2023-02-07T22:01:47.538Z,12.35
2023-02-07T22:04:18.142Z,13.52
2023-02-07T22:06:49.138Z,13.50
2023-02-07T22:09:19.377Z,13.63
2023-02-07T22:11:47.884Z,14.02
2023-02-07T22:14:17.617Z,12.23
2023-02-07T22:16:51.078Z,11.68
2023-02-07T22:19:21.259Z,12.20
2023-02-07T22:21:51.706Z,13.10
2023-02-07T22:24:21.193Z,13.00
2023-02-07T22:26:49.672Z,12.55
2023-02-07T22:29:18.163Z,12.18
2023-02-07T22:31:48.115Z,12.35
2023-02-07T22:34:17.170Z,12.00
2023-02-07T22:36:46.969Z,13.07
2023-02-07T22:39:17.179Z,11.95
2023-02-07T22:41:46.975Z,12.30
2023-02-07T22:44:15.922Z,12.93
2023-02-07T22:46:44.912Z,12.63
2023-02-07T22:49:16.713Z,12.13
2023-02-07T22:51:46.290Z,12.70
2023-02-07T22:54:19.540Z,13.77
2023-02-07T22:56:48.384Z,12.88
2023-02-07T22:59:17.741Z,12.02
2023-02-07T23:01:46.634Z,12.00
2023-02-07T23:04:18.605Z,12.25
2023-02-07T23:06:48.580Z,13.25
2023-02-07T23:09:17.420Z,13.73
2023-02-07T23:11:46.478Z,14.02
2023-02-07T23:14:16.539Z,12.88
2023-02-07T23:16:46.451Z,13.90
2023-02-07T23:19:18.294Z,13.27
2023-02-07T23:21:47.546Z,12.70
2023-02-07T23:24:16.498Z,13.52
2023-02-07T23:26:45.098Z,13.23
2023-02-07T23:29:14.122Z,13.70
2023-02-07T23:31:42.841Z,14.00
2023-02-07T23:34:12.074Z,14.40
2023-02-07T23:36:43.531Z,14.10
2023-02-07T23:39:13.240Z,13.68
2023-02-07T23:41:42.760Z,14.00
2023-02-07T23:44:11.909Z,13.20
2023-02-07T23:46:41.091Z,14.23
2023-02-07T23:49:09.944Z,13.50
2023-02-07T23:51:39.905Z,12.90
2023-02-07T23:54:10.663Z,13.70
2023-02-07T23:56:42.433Z,13.35
